Time;durP1;ratioP1;P1;durP2;ratioP2;P2;SDS_P1;SDS_P2;PMS_P1;PMS_P2;Temp;Humidity;BMP_temperature;BMP_pressure;BME280_temperature;BME280_humidity;BME280_pressure;Samples;Min_cycle;Max_cycle;Signal;HPM_P1;HPM_P2
2022/01/24 00:01:09;;;;;;;56.70;25.65;;;;;;;;;;6272556;22;20037;-64
2022/01/24 00:03:35;;;;;;;14.25;5.95;;;;;;;;;;6271624;22;20000;-64
2022/01/24 00:06:02;;;;;;;14.45;7.47;;;;;;;;;;6271004;22;20037;-65
2022/01/24 00:08:30;;;;;;;14.30;6.72;;;;;;;;;;6270700;22;20031;-64
2022/01/24 00:11:03;;;;;;;6.65;4.60;;;;;;;;;;6269838;22;20000;-64
2022/01/24 00:26:51;;;;;;;11.20;4.93;;;;;;;;;;6275656;22;20077;-65
2022/01/24 00:29:19;;;;;;;12.13;4.13;;;;;;;;;;6271822;22;20011;-64
2022/01/24 00:31:46;;;;;;;12.38;4.43;;;;;;;;;;6271369;22;20011;-64
2022/01/24 00:34:12;;;;;;;6.38;4.35;;;;;;;;;;6272618;22;20402;-64
2022/01/24 00:36:39;;;;;;;7.35;3.67;;;;;;;;;;6271588;22;20070;-65
2022/01/24 00:39:06;;;;;;;7.18;3.60;;;;;;;;;;6271172;22;20079;-64
2022/01/24 00:41:42;;;;;;;10.00;4.00;;;;;;;;;;6271634;22;19999;-64
2022/01/24 00:47:03;;;;;;;8.57;4.32;;;;;;;;;;6270522;22;20014;-65
2022/01/24 00:49:52;;;;;;;8.23;4.70;;;;;;;;;;6272645;22;20037;-64
2022/01/24 00:55:04;;;;;;;11.10;4.28;;;;;;;;;;6272278;22;20479;-64
2022/01/24 01:00:34;;;;;;;8.57;4.38;;;;;;;;;;6270402;22;20057;-64
2022/01/24 01:03:00;;;;;;;8.27;4.45;;;;;;;;;;6271416;22;20335;-65
2022/01/24 01:18:08;;;;;;;5.97;3.75;;;;;;;;;;6270785;22;20023;-64
2022/01/24 01:18:43;;;;;;;7.72;4.38;;;;;;;;;;6271658;22;20389;-64
2022/01/24 01:21:11;;;;;;;7.35;4.18;;;;;;;;;;6270589;22;20057;-64
2022/01/24 01:23:58;;;;;;;8.98;4.05;;;;;;;;;;6271513;22;20027;-64
2022/01/24 01:29:23;;;;;;;7.47;3.60;;;;;;;;;;6224507;22;20062;-64
2022/01/24 01:40:39;;;;;;;8.27;4.47;;;;;;;;;;6272105;22;20096;-64
2022/01/24 01:56:22;;;;;;;10.50;3.70;;;;;;;;;;6271380;22;20007;-64
2022/01/24 01:58:48;;;;;;;10.98;4.57;;;;;;;;;;6270472;22;20003;-66
2022/01/24 02:01:14;;;;;;;11.68;5.00;;;;;;;;;;6271776;22;20366;-68
2022/01/24 02:03:41;;;;;;;8.70;5.63;;;;;;;;;;6271180;22;19999;-64
2022/01/24 02:06:07;;;;;;;11.00;4.82;;;;;;;;;;6274144;22;20359;-64
2022/01/24 02:08:33;;;;;;;8.30;3.88;;;;;;;;;;6272909;22;20000;-64
2022/01/24 02:11:00;;;;;;;9.30;4.22;;;;;;;;;;6272513;22;20464;-64
2022/01/24 02:13:27;;;;;;;10.85;4.93;;;;;;;;;;6271188;22;20018;-64
2022/01/24 02:25:50;;;;;;;9.65;4.40;;;;;;;;;;6271716;22;20004;-64
2022/01/24 02:28:18;;;;;;;11.48;5.25;;;;;;;;;;6272053;22;20058;-64
2022/01/24 02:31:20;;;;;;;8.73;4.38;;;;;;;;;;6272167;22;20075;-64
2022/01/24 02:33:48;;;;;;;9.38;4.95;;;;;;;;;;6273852;22;20022;-64
2022/01/24 02:36:22;;;;;;;12.57;4.70;;;;;;;;;;6271596;22;20011;-64
2022/01/24 02:49:32;;;;;;;13.23;5.18;;;;;;;;;;6272266;22;20012;-64
2022/01/24 02:52:06;;;;;;;11.63;5.43;;;;;;;;;;6271251;22;20014;-64
2022/01/24 02:54:33;;;;;;;9.82;5.35;;;;;;;;;;6273669;22;20084;-64
2022/01/24 02:57:00;;;;;;;7.90;4.35;;;;;;;;;;6272494;22;20004;-64
2022/01/24 02:59:26;;;;;;;14.65;6.05;;;;;;;;;;6273322;22;20183;-64
2022/01/24 03:01:52;;;;;;;12.18;6.10;;;;;;;;;;6271902;22;20078;-64
2022/01/24 03:04:18;;;;;;;13.73;5.65;;;;;;;;;;6272000;22;20303;-64
2022/01/24 03:06:44;;;;;;;12.48;4.80;;;;;;;;;;6271949;22;19996;-64
2022/01/24 03:09:11;;;;;;;9.70;5.18;;;;;;;;;;6271910;22;20004;-64
2022/01/24 03:12:39;;;;;;;12.23;5.35;;;;;;;;;;6271684;22;20061;-64
2022/01/24 03:14:27;;;;;;;11.98;5.13;;;;;;;;;;6251728;22;20065;-63
2022/01/24 03:16:53;;;;;;;9.60;5.45;;;;;;;;;;6271394;22;20057;-64
2022/01/24 03:19:19;;;;;;;14.93;5.40;;;;;;;;;;6272743;22;20065;-64
2022/01/24 03:21:45;;;;;;;10.55;5.55;;;;;;;;;;6265648;22;20011;-64
2022/01/24 03:24:11;;;;;;;14.13;6.22;;;;;;;;;;6272160;22;20031;-64
2022/01/24 03:26:37;;;;;;;11.88;5.55;;;;;;;;;;6272735;22;20004;-64
2022/01/24 03:29:04;;;;;;;17.95;6.00;;;;;;;;;;6272682;22;20015;-64
2022/01/24 03:31:30;;;;;;;14.00;5.38;;;;;;;;;;6271692;22;20007;-64
2022/01/24 03:33:56;;;;;;;13.93;6.20;;;;;;;;;;6272726;22;20079;-64
2022/01/24 03:36:22;;;;;;;8.95;5.15;;;;;;;;;;6269972;22;20007;-65
2022/01/24 03:38:49;;;;;;;7.85;5.85;;;;;;;;;;6271893;22;20008;-64
2022/01/24 03:41:15;;;;;;;14.00;5.45;;;;;;;;;;6273088;22;20010;-64
2022/01/24 03:43:41;;;;;;;14.20;6.38;;;;;;;;;;6272205;22;20033;-64
2022/01/24 03:46:14;;;;;;;13.90;6.30;;;;;;;;;;6271629;22;20004;-64
2022/01/24 03:48:54;;;;;;;20.35;5.57;;;;;;;;;;6272692;22;20438;-64
2022/01/24 03:51:21;;;;;;;11.13;5.47;;;;;;;;;;6272918;22;20064;-68
2022/01/24 03:53:48;;;;;;;9.30;5.28;;;;;;;;;;6270703;22;20441;-64
2022/01/24 03:56:14;;;;;;;14.07;6.07;;;;;;;;;;6271230;22;19996;-63
2022/01/24 03:58:41;;;;;;;12.05;4.50;;;;;;;;;;6271034;22;20498;-64
2022/01/24 04:01:08;;;;;;;13.13;5.72;;;;;;;;;;6272783;22;20000;-65
2022/01/24 04:03:35;;;;;;;15.02;7.20;;;;;;;;;;6271623;22;20065;-64
2022/01/24 04:06:02;;;;;;;15.68;5.38;;;;;;;;;;6273100;22;20003;-68
2022/01/24 04:08:28;;;;;;;11.60;5.38;;;;;;;;;;6271916;22;20007;-64
2022/01/24 04:10:56;;;;;;;9.48;5.80;;;;;;;;;;6277053;22;20003;-65
2022/01/24 04:13:33;;;;;;;11.30;6.13;;;;;;;;;;6276637;22;20026;-64
2022/01/24 04:21:16;;;;;;;14.82;4.80;;;;;;;;;;6280855;22;20012;-65
2022/01/24 04:21:27;;;;;;;11.50;5.50;;;;;;;;;;6256167;22;20455;-64
2022/01/24 04:24:05;;;;;;;15.40;6.70;;;;;;;;;;6272617;22;20584;-63
2022/01/24 04:26:31;;;;;;;8.80;4.82;;;;;;;;;;6271426;22;19999;-64
2022/01/24 04:28:58;;;;;;;10.15;4.95;;;;;;;;;;6274448;22;20003;-64
2022/01/24 04:31:25;;;;;;;20.80;5.72;;;;;;;;;;6270833;22;20006;-64
2022/01/24 04:33:52;;;;;;;11.27;4.90;;;;;;;;;;6271591;22;20016;-64
2022/01/24 04:36:18;;;;;;;14.20;5.88;;;;;;;;;;6268330;22;20448;-64
2022/01/24 04:38:45;;;;;;;12.73;5.80;;;;;;;;;;6272178;22;20007;-64
2022/01/24 04:41:19;;;;;;;15.95;6.05;;;;;;;;;;6270951;22;20011;-64
2022/01/24 04:56:37;;;;;;;11.45;6.03;;;;;;;;;;6281826;22;20084;-64
2022/01/24 04:59:03;;;;;;;9.90;5.20;;;;;;;;;;6271560;22;20046;-64
2022/01/24 05:01:29;;;;;;;13.02;5.70;;;;;;;;;;6270853;22;20407;-63
2022/01/24 05:03:55;;;;;;;10.23;5.20;;;;;;;;;;6271340;22;19995;-64
2022/01/24 05:06:21;;;;;;;10.05;6.35;;;;;;;;;;6270448;22;20404;-63
2022/01/24 05:08:47;;;;;;;17.58;5.82;;;;;;;;;;6271494;22;20010;-64
2022/01/24 05:11:21;;;;;;;16.05;5.43;;;;;;;;;;6271438;22;20003;-64
2022/01/24 05:24:35;;;;;;;20.60;6.40;;;;;;;;;;6271359;22;20053;-64
2022/01/24 05:27:02;;;;;;;17.98;6.45;;;;;;;;;;6270922;22;20083;-64
2022/01/24 05:29:28;;;;;;;15.90;5.78;;;;;;;;;;6271083;22;20042;-64
2022/01/24 05:31:55;;;;;;;14.70;5.90;;;;;;;;;;6272080;22;20004;-64
2022/01/24 05:34:21;;;;;;;13.02;5.30;;;;;;;;;;6271296;22;20111;-64
2022/01/24 05:36:47;;;;;;;9.65;5.20;;;;;;;;;;6271275;22;20026;-68
2022/01/24 05:39:13;;;;;;;15.00;6.30;;;;;;;;;;6272409;22;20007;-64
2022/01/24 05:41:40;;;;;;;16.58;6.93;;;;;;;;;;6273371;22;20046;-64
2022/01/24 05:44:07;;;;;;;12.25;6.18;;;;;;;;;;6274157;22;20000;-64
2022/01/24 05:46:33;;;;;;;17.52;6.18;;;;;;;;;;6273680;22;19996;-64
2022/01/24 05:49:01;;;;;;;12.50;5.43;;;;;;;;;;6273856;22;20004;-64
2022/01/24 05:51:28;;;;;;;11.60;6.22;;;;;;;;;;6271554;22;20004;-64
2022/01/24 05:53:54;;;;;;;9.48;5.68;;;;;;;;;;6273616;22;19996;-64
2022/01/24 05:56:20;;;;;;;16.83;6.65;;;;;;;;;;6273539;22;20006;-64
2022/01/24 05:58:46;;;;;;;13.23;5.85;;;;;;;;;;6272202;22;19996;-64
2022/01/24 06:01:13;;;;;;;11.23;5.68;;;;;;;;;;6273643;22;20057;-64
2022/01/24 06:03:39;;;;;;;11.43;5.85;;;;;;;;;;6272492;22;20561;-64
2022/01/24 06:06:07;;;;;;;13.88;5.88;;;;;;;;;;6273687;22;19999;-64
2022/01/24 06:08:33;;;;;;;21.48;6.40;;;;;;;;;;6272719;22;20000;-64
2022/01/24 06:10:59;;;;;;;12.02;5.57;;;;;;;;;;6272849;22;20522;-64
2022/01/24 06:13:26;;;;;;;15.23;5.70;;;;;;;;;;6271628;22;20010;-63
2022/01/24 06:15:52;;;;;;;13.20;6.50;;;;;;;;;;6273397;22;20004;-64
2022/01/24 06:18:20;;;;;;;14.45;5.90;;;;;;;;;;6273618;22;20011;-64
2022/01/24 06:20:46;;;;;;;14.55;6.30;;;;;;;;;;6272240;22;20014;-64
2022/01/24 06:23:15;;;;;;;15.18;5.60;;;;;;;;;;6273766;22;20067;-64
2022/01/24 06:25:41;;;;;;;14.50;6.60;;;;;;;;;;6272562;22;19996;-64
2022/01/24 06:28:08;;;;;;;13.45;5.30;;;;;;;;;;6273429;22;20415;-64
2022/01/24 06:30:34;;;;;;;14.13;6.60;;;;;;;;;;6271351;22;20011;-64
2022/01/24 06:33:00;;;;;;;11.57;6.50;;;;;;;;;;6272802;22;20014;-64
2022/01/24 06:35:26;;;;;;;12.93;5.40;;;;;;;;;;6273000;22;20007;-63
2022/01/24 06:37:52;;;;;;;20.38;7.00;;;;;;;;;;6272629;22;20053;-64
2022/01/24 06:40:18;;;;;;;13.27;6.85;;;;;;;;;;6273667;22;20007;-63
2022/01/24 06:42:46;;;;;;;18.58;6.90;;;;;;;;;;6272331;22;20099;-65
2022/01/24 06:45:12;;;;;;;16.48;7.25;;;;;;;;;;6273862;22;20066;-64
2022/01/24 06:47:40;;;;;;;11.95;6.55;;;;;;;;;;6271339;22;20053;-64
2022/01/24 06:50:06;;;;;;;14.75;6.85;;;;;;;;;;6273965;22;20392;-65
2022/01/24 06:52:32;;;;;;;12.98;5.95;;;;;;;;;;6271769;22;20004;-64
2022/01/24 06:54:58;;;;;;;17.48;7.38;;;;;;;;;;6273816;22;20039;-64
2022/01/24 06:57:25;;;;;;;22.08;7.75;;;;;;;;;;6271424;22;20045;-64
2022/01/24 06:59:51;;;;;;;20.10;7.10;;;;;;;;;;6273777;22;20010;-64
2022/01/24 07:02:17;;;;;;;14.75;6.47;;;;;;;;;;6272453;22;20418;-64
2022/01/24 07:04:44;;;;;;;13.40;7.78;;;;;;;;;;6272988;22;20003;-64
2022/01/24 07:07:11;;;;;;;13.65;6.65;;;;;;;;;;6272193;22;20359;-64
2022/01/24 07:09:38;;;;;;;18.20;8.30;;;;;;;;;;6271935;22;20008;-64
2022/01/24 07:12:04;;;;;;;17.58;7.93;;;;;;;;;;6272749;22;20703;-64
2022/01/24 07:14:31;;;;;;;24.25;6.85;;;;;;;;;;6272775;22;20423;-64
2022/01/24 07:19:24;;;;;;;17.77;6.82;;;;;;;;;;6271059;22;20011;-64
2022/01/24 07:21:51;;;;;;;12.10;7.03;;;;;;;;;;6271747;22;20419;-64
2022/01/24 07:24:17;;;;;;;13.32;6.43;;;;;;;;;;6272791;22;19996;-64
2022/01/24 07:26:43;;;;;;;11.48;6.95;;;;;;;;;;6272200;22;20026;-64
2022/01/24 07:29:09;;;;;;;18.98;9.30;;;;;;;;;;6272078;22;20004;-63
2022/01/24 07:31:35;;;;;;;11.20;6.60;;;;;;;;;;6270279;22;20478;-64
2022/01/24 07:34:01;;;;;;;15.77;6.68;;;;;;;;;;6272065;22;20502;-64
2022/01/24 07:36:27;;;;;;;17.45;7.05;;;;;;;;;;6270971;22;20323;-63
2022/01/24 07:38:54;;;;;;;13.52;6.22;;;;;;;;;;6272723;22;19999;-64
2022/01/24 07:41:25;;;;;;;13.70;7.78;;;;;;;;;;6270935;22;20003;-63
2022/01/24 07:43:51;;;;;;;12.00;6.57;;;;;;;;;;6272065;22;20000;-64
2022/01/24 07:46:17;;;;;;;16.98;6.60;;;;;;;;;;6271763;22;19999;-64
2022/01/24 07:48:44;;;;;;;18.30;8.10;;;;;;;;;;6271864;22;20030;-64
2022/01/24 07:51:10;;;;;;;14.68;6.38;;;;;;;;;;6271524;22;20053;-64
2022/01/24 07:53:36;;;;;;;14.25;8.15;;;;;;;;;;6271100;22;20014;-65
2022/01/24 07:56:03;;;;;;;13.43;6.55;;;;;;;;;;6271554;22;20670;-64
2022/01/24 07:58:29;;;;;;;18.27;6.60;;;;;;;;;;6271875;22;20244;-64
2022/01/24 08:00:55;;;;;;;15.55;6.60;;;;;;;;;;6270613;22;20011;-64
2022/01/24 08:03:21;;;;;;;17.08;7.40;;;;;;;;;;6270682;22;20038;-64
2022/01/24 08:05:47;;;;;;;16.90;7.90;;;;;;;;;;6271294;22;20034;-64
2022/01/24 08:08:13;;;;;;;14.63;7.07;;;;;;;;;;6269731;22;20000;-64
2022/01/24 08:10:39;;;;;;;15.52;6.85;;;;;;;;;;6270849;22;20007;-63
2022/01/24 08:13:06;;;;;;;13.35;7.00;;;;;;;;;;6270423;22;20008;-64
2022/01/24 08:15:32;;;;;;;15.98;6.95;;;;;;;;;;6270588;22;20014;-63
2022/01/24 08:17:58;;;;;;;20.23;7.78;;;;;;;;;;6270647;22;20015;-63
2022/01/24 08:20:25;;;;;;;17.20;7.57;;;;;;;;;;6272031;22;20030;-63
2022/01/24 08:22:51;;;;;;;15.43;7.82;;;;;;;;;;6269838;22;20501;-63
2022/01/24 08:25:18;;;;;;;17.38;7.70;;;;;;;;;;6272099;22;19999;-63
2022/01/24 08:27:46;;;;;;;16.25;6.68;;;;;;;;;;6271518;22;20488;-63
2022/01/24 08:30:14;;;;;;;15.52;7.28;;;;;;;;;;6270302;22;20017;-63
2022/01/24 08:32:41;;;;;;;18.52;8.15;;;;;;;;;;6271059;22;20004;-63
2022/01/24 08:35:09;;;;;;;20.35;8.18;;;;;;;;;;6270602;22;20092;-63
2022/01/24 08:37:35;;;;;;;15.98;10.20;;;;;;;;;;6271088;22;20462;-63
2022/01/24 08:40:02;;;;;;;20.65;9.15;;;;;;;;;;6269998;22;20008;-64
2022/01/24 08:42:43;;;;;;;18.65;8.27;;;;;;;;;;6270204;22;20039;-64
2022/01/24 08:47:54;;;;;;;12.65;7.00;;;;;;;;;;6269526;22;20065;-63
2022/01/24 08:50:25;;;;;;;16.90;9.32;;;;;;;;;;6270070;22;20366;-63
2022/01/24 08:52:51;;;;;;;17.70;10.48;;;;;;;;;;6271509;22;20019;-64
2022/01/24 08:55:17;;;;;;;19.75;11.55;;;;;;;;;;6270573;22;20338;-63
2022/01/24 08:57:44;;;;;;;18.88;11.18;;;;;;;;;;6267655;22;20034;-64
2022/01/24 09:00:10;;;;;;;16.58;9.32;;;;;;;;;;6269324;22;20388;-64
2022/01/24 09:02:36;;;;;;;17.23;9.07;;;;;;;;;;6271621;22;20060;-64
2022/01/24 09:05:03;;;;;;;14.73;8.50;;;;;;;;;;6270696;22;20711;-64
2022/01/24 09:07:30;;;;;;;20.45;9.98;;;;;;;;;;6269985;22;20340;-65
2022/01/24 09:09:57;;;;;;;19.25;9.25;;;;;;;;;;6271805;22;20000;-65
2022/01/24 09:12:23;;;;;;;20.30;10.18;;;;;;;;;;6274620;22;20008;-64
2022/01/24 09:14:50;;;;;;;25.38;10.10;;;;;;;;;;6272467;22;20114;-64
2022/01/24 09:17:17;;;;;;;18.95;9.05;;;;;;;;;;6273498;22;20472;-64
2022/01/24 09:19:43;;;;;;;19.88;10.07;;;;;;;;;;6272906;22;20004;-63
2022/01/24 09:22:09;;;;;;;20.00;9.15;;;;;;;;;;6273134;22;20003;-64
2022/01/24 09:24:36;;;;;;;24.50;10.63;;;;;;;;;;6272814;22;20000;-63
2022/01/24 09:27:02;;;;;;;15.20;7.10;;;;;;;;;;6273380;22;20007;-64
2022/01/24 09:29:29;;;;;;;20.25;8.80;;;;;;;;;;6272831;22;20069;-64
2022/01/24 09:31:55;;;;;;;19.45;8.18;;;;;;;;;;6272635;22;20542;-64
2022/01/24 09:34:22;;;;;;;16.90;8.52;;;;;;;;;;6273004;22;20019;-67
2022/01/24 09:36:48;;;;;;;19.85;8.02;;;;;;;;;;6270111;22;20356;-64
2022/01/24 09:39:15;;;;;;;16.83;10.85;;;;;;;;;;6271905;22;20011;-63
2022/01/24 09:41:41;;;;;;;16.80;8.80;;;;;;;;;;6272343;22;20450;-64
2022/01/24 09:44:07;;;;;;;12.98;8.30;;;;;;;;;;6272022;22;20812;-63
2022/01/24 09:46:40;;;;;;;16.58;7.28;;;;;;;;;;6266877;22;20508;-63
2022/01/24 09:49:06;;;;;;;15.75;8.25;;;;;;;;;;6273279;22;20042;-63
2022/01/24 09:51:33;;;;;;;14.25;6.82;;;;;;;;;;6272841;22;20075;-63
2022/01/24 09:54:00;;;;;;;18.33;10.32;;;;;;;;;;6273141;22;20007;-65
2022/01/24 09:56:27;;;;;;;14.75;8.57;;;;;;;;;;6272971;22;19992;-63
2022/01/24 09:58:53;;;;;;;15.68;7.22;;;;;;;;;;6273160;22;20000;-64
2022/01/24 10:01:19;;;;;;;18.08;8.13;;;;;;;;;;6273256;22;20050;-63
2022/01/24 10:04:05;;;;;;;23.08;8.13;;;;;;;;;;6272478;22;20004;-63
2022/01/24 10:06:50;;;;;;;17.20;9.60;;;;;;;;;;6270337;22;20098;-63
2022/01/24 10:09:16;;;;;;;20.08;8.82;;;;;;;;;;6272626;22;20000;-63
2022/01/24 10:12:00;;;;;;;16.48;8.15;;;;;;;;;;6273502;22;20000;-63
2022/01/24 10:17:26;;;;;;;15.73;8.23;;;;;;;;;;6273095;22;20107;-64
2022/01/24 10:19:52;;;;;;;20.98;9.30;;;;;;;;;;6270483;22;20062;-65
2022/01/24 10:22:23;;;;;;;17.02;8.13;;;;;;;;;;6272666;22;20008;-63
2022/01/24 10:24:51;;;;;;;17.42;8.30;;;;;;;;;;6272129;22;20042;-64
2022/01/24 10:27:23;;;;;;;21.50;8.90;;;;;;;;;;6272081;22;20003;-64
2022/01/24 10:29:55;;;;;;;17.20;8.15;;;;;;;;;;6270402;22;20438;-64
2022/01/24 10:32:28;;;;;;;19.08;8.15;;;;;;;;;;6273053;22;20006;-64
2022/01/24 10:34:54;;;;;;;16.48;7.97;;;;;;;;;;6271663;22;20022;-64
2022/01/24 10:37:22;;;;;;;22.58;8.18;;;;;;;;;;6272482;22;20000;-64
2022/01/24 10:39:58;;;;;;;16.90;8.55;;;;;;;;;;6270118;22;20007;-64
2022/01/24 10:45:12;;;;;;;19.55;8.45;;;;;;;;;;6272869;22;20016;-64
2022/01/24 10:47:44;;;;;;;15.77;7.85;;;;;;;;;;6269927;22;19999;-64
2022/01/24 10:50:11;;;;;;;14.23;8.63;;;;;;;;;;6273523;22;20003;-63
2022/01/24 10:52:38;;;;;;;17.42;9.73;;;;;;;;;;6271286;22;20439;-64
2022/01/24 10:55:13;;;;;;;18.33;7.50;;;;;;;;;;6271809;22;20004;-64
2022/01/24 10:57:40;;;;;;;17.70;7.80;;;;;;;;;;6267665;22;20077;-64
2022/01/24 11:00:13;;;;;;;23.15;10.45;;;;;;;;;;6272040;22;20003;-64
2022/01/24 11:02:40;;;;;;;17.05;8.13;;;;;;;;;;6271124;22;20033;-64
2022/01/24 11:05:26;;;;;;;18.17;9.18;;;;;;;;;;6272230;22;20077;-64
2022/01/24 11:07:52;;;;;;;;;;;;;;;;;;6271983;22;20100;-64
2022/01/24 11:10:18;;;;;;;;;;;;;;;;;;6272198;22;19907;-65
2022/01/24 11:12:45;;;;;;;18.63;8.77;;;;;;;;;;6271171;22;19985;-66
2022/01/24 11:15:11;;;;;;;14.85;7.57;;;;;;;;;;6272586;22;19999;-65
2022/01/24 11:17:37;;;;;;;18.58;8.25;;;;;;;;;;6270913;22;20078;-64
2022/01/24 11:20:04;;;;;;;17.92;9.23;;;;;;;;;;6269161;22;20014;-64
2022/01/24 11:22:34;;;;;;;25.17;9.48;;;;;;;;;;6267346;22;20069;-64
2022/01/24 11:25:03;;;;;;;20.00;8.40;;;;;;;;;;6272596;22;20004;-64
2022/01/24 11:27:30;;;;;;;20.95;8.50;;;;;;;;;;6270830;22;20449;-66
2022/01/24 11:30:02;;;;;;;16.52;8.20;;;;;;;;;;6271375;22;20007;-64
2022/01/24 11:32:34;;;;;;;13.65;7.38;;;;;;;;;;6272127;22;20045;-65
2022/01/24 11:35:01;;;;;;;21.05;9.27;;;;;;;;;;6271426;22;20066;-66
2022/01/24 11:37:42;;;;;;;12.82;8.50;;;;;;;;;;6271189;22;20008;-65
2022/01/24 11:40:19;;;;;;;15.18;9.13;;;;;;;;;;6271845;22;20442;-65
2022/01/24 11:42:47;;;;;;;16.38;7.70;;;;;;;;;;6271629;22;19996;-64
2022/01/24 11:45:17;;;;;;;20.48;10.02;;;;;;;;;;6272343;22;20378;-65
2022/01/24 11:47:44;;;;;;;13.38;7.32;;;;;;;;;;6271856;22;20508;-66
2022/01/24 11:50:25;;;;;;;14.85;7.65;;;;;;;;;;6271863;22;20007;-64
2022/01/24 11:52:52;;;;;;;17.77;8.00;;;;;;;;;;6271568;22;20038;-64
2022/01/24 11:55:31;;;;;;;19.08;8.43;;;;;;;;;;6271235;22;20016;-65
2022/01/24 11:58:03;;;;;;;16.13;7.28;;;;;;;;;;6272678;22;20509;-65
2022/01/24 12:00:34;;;;;;;15.98;7.75;;;;;;;;;;6270267;22;20014;-65
2022/01/24 12:03:13;;;;;;;13.05;8.00;;;;;;;;;;6271785;22;20103;-66
2022/01/24 12:05:48;;;;;;;15.98;8.10;;;;;;;;;;6269450;22;20424;-66
2022/01/24 12:08:32;;;;;;;15.27;8.82;;;;;;;;;;5024746;27;20479;-69
2022/01/24 12:11:19;;;;;;;14.55;8.77;;;;;;;;;;5015663;28;20189;-67
2022/01/24 12:13:50;;;;;;;18.55;8.93;;;;;;;;;;5011904;28;20048;-68
2022/01/24 12:16:17;;;;;;;13.15;7.68;;;;;;;;;;5013351;28;20423;-67
2022/01/24 12:18:44;;;;;;;18.92;11.60;;;;;;;;;;5001723;28;20037;-67
2022/01/24 12:21:11;;;;;;;15.45;8.57;;;;;;;;;;5008450;28;20034;-68
2022/01/24 12:23:44;;;;;;;16.05;8.23;;;;;;;;;;5009586;28;20440;-69
2022/01/24 12:26:21;;;;;;;17.92;7.82;;;;;;;;;;5008009;28;20030;-68
2022/01/24 12:28:53;;;;;;;16.92;9.57;;;;;;;;;;5008238;28;20037;-69
2022/01/24 12:31:20;;;;;;;17.88;9.00;;;;;;;;;;5005737;28;20026;-67
2022/01/24 12:33:55;;;;;;;15.60;8.90;;;;;;;;;;5022138;28;20033;-69
2022/01/24 12:39:10;;;;;;;17.20;9.20;;;;;;;;;;5003001;28;20057;-66
2022/01/24 12:41:40;;;;;;;14.70;8.38;;;;;;;;;;5006779;28;20223;-67
2022/01/24 12:46:33;;;;;;;22.80;12.32;;;;;;;;;;5002778;28;20030;-68
2022/01/24 12:49:01;;;;;;;16.27;9.25;;;;;;;;;;5001797;28;20659;-68
2022/01/24 12:51:28;;;;;;;21.23;10.25;;;;;;;;;;5002719;28;20049;-68
2022/01/24 12:53:55;;;;;;;17.58;10.65;;;;;;;;;;5000957;28;20469;-68
2022/01/24 12:56:25;;;;;;;18.55;9.02;;;;;;;;;;5002221;28;20637;-68
2022/01/24 12:58:52;;;;;;;25.77;13.93;;;;;;;;;;5018299;28;20030;-68
2022/01/24 13:01:22;;;;;;;20.08;11.00;;;;;;;;;;5003622;28;20484;-68
2022/01/24 13:03:52;;;;;;;21.73;12.63;;;;;;;;;;4993430;28;20034;-68
2022/01/24 13:06:19;;;;;;;17.42;10.40;;;;;;;;;;4995975;28;20868;-67
2022/01/24 13:08:55;;;;;;;21.80;12.07;;;;;;;;;;4997282;28;20396;-68
2022/01/24 13:11:21;;;;;;;21.00;10.38;;;;;;;;;;4994471;28;20045;-67
2022/01/24 13:14:11;;;;;;;24.50;11.63;;;;;;;;;;4995378;28;20084;-66
2022/01/24 13:25:23;;;;;;;21.38;11.77;;;;;;;;;;4981487;28;20393;-66
2022/01/24 13:27:50;;;;;;;22.05;11.40;;;;;;;;;;4984597;28;20069;-66
2022/01/24 13:30:24;;;;;;;22.10;11.07;;;;;;;;;;4983235;28;20022;-66
2022/01/24 13:32:54;;;;;;;23.67;14.00;;;;;;;;;;4985495;28;20022;-66
2022/01/24 13:35:27;;;;;;;21.17;12.32;;;;;;;;;;4984412;28;20033;-65
2022/01/24 13:37:57;;;;;;;18.20;10.43;;;;;;;;;;4984163;28;20381;-66
2022/01/24 13:40:42;;;;;;;23.58;11.50;;;;;;;;;;4985477;28;20038;-68
2022/01/24 13:43:11;;;;;;;22.58;11.98;;;;;;;;;;4985022;28;20034;-66
2022/01/24 13:45:42;;;;;;;22.17;9.93;;;;;;;;;;4983543;28;20033;-66
2022/01/24 13:48:16;;;;;;;29.05;12.18;;;;;;;;;;4987036;28;20026;-65
2022/01/24 13:50:53;;;;;;;31.33;12.57;;;;;;;;;;4984483;28;20048;-66
2022/01/24 13:53:29;;;;;;;21.10;12.68;;;;;;;;;;4984477;28;20362;-66
2022/01/24 13:55:55;;;;;;;30.67;13.05;;;;;;;;;;4983094;28;20061;-66
2022/01/24 13:58:28;;;;;;;24.95;14.00;;;;;;;;;;4988767;28;20085;-66
2022/01/24 14:00:58;;;;;;;28.67;13.18;;;;;;;;;;4987668;28;20030;-66
2022/01/24 14:03:24;;;;;;;24.08;14.15;;;;;;;;;;4981330;28;20516;-71
2022/01/24 14:06:10;;;;;;;27.95;14.57;;;;;;;;;;4998009;28;20030;-66
2022/01/24 14:08:36;;;;;;;27.58;14.45;;;;;;;;;;4988959;28;20034;-65
2022/01/24 14:11:20;;;;;;;28.63;13.68;;;;;;;;;;4988410;28;20469;-65
2022/01/24 14:14:02;;;;;;;28.35;15.70;;;;;;;;;;4985863;28;20054;-66
2022/01/24 14:16:38;;;;;;;29.02;13.10;;;;;;;;;;4986183;28;20109;-65
2022/01/24 14:19:04;;;;;;;28.63;14.88;;;;;;;;;;4999177;28;20070;-66
2022/01/24 14:21:30;;;;;;;28.85;14.65;;;;;;;;;;4993424;28;20485;-65
2022/01/24 14:23:56;;;;;;;32.67;15.05;;;;;;;;;;4990563;28;20076;-65
2022/01/24 14:26:24;;;;;;;28.88;13.38;;;;;;;;;;4996346;28;20029;-65
2022/01/24 14:29:05;;;;;;;25.55;13.88;;;;;;;;;;4992255;28;20478;-66
2022/01/24 14:31:32;;;;;;;26.13;13.88;;;;;;;;;;4994343;28;20381;-65
2022/01/24 14:34:03;;;;;;;29.02;14.20;;;;;;;;;;4988391;28;20019;-66
2022/01/24 14:36:29;;;;;;;27.05;14.05;;;;;;;;;;5004348;28;20030;-66
2022/01/24 14:38:58;;;;;;;25.42;14.13;;;;;;;;;;4991597;28;20031;-67
2022/01/24 14:41:27;;;;;;;34.75;17.90;;;;;;;;;;4982688;28;20527;-67
2022/01/24 14:46:39;;;;;;;37.92;20.52;;;;;;;;;;4983400;28;20064;-67
2022/01/24 14:49:12;;;;;;;36.70;19.27;;;;;;;;;;4983441;28;20019;-67
2022/01/24 14:51:40;;;;;;;32.33;17.65;;;;;;;;;;4983516;28;20027;-68
2022/01/24 14:54:09;;;;;;;32.30;18.05;;;;;;;;;;4982922;28;20034;-67
2022/01/24 14:56:36;;;;;;;38.35;21.40;;;;;;;;;;4986634;28;20031;-66
2022/01/24 14:59:03;;;;;;;33.38;15.65;;;;;;;;;;4981796;28;20070;-66
2022/01/24 15:01:29;;;;;;;39.72;20.05;;;;;;;;;;4985496;28;20034;-68
2022/01/24 15:03:55;;;;;;;40.58;21.73;;;;;;;;;;4985229;28;20034;-67
2022/01/24 15:06:22;;;;;;;59.45;25.40;;;;;;;;;;4983927;28;20098;-67
2022/01/24 15:08:48;;;;;;;95.38;49.00;;;;;;;;;;4984292;28;20583;-67
2022/01/24 15:11:17;;;;;;;41.55;19.17;;;;;;;;;;4986517;28;20026;-67
2022/01/24 15:13:50;;;;;;;34.80;18.60;;;;;;;;;;4985264;28;20056;-67
2022/01/24 15:16:17;;;;;;;45.40;26.00;;;;;;;;;;4982752;28;20033;-66
2022/01/24 15:27:04;;;;;;;47.08;25.63;;;;;;;;;;4981406;28;20093;-67
2022/01/24 15:29:31;;;;;;;36.63;18.38;;;;;;;;;;4974938;28;20034;-67
2022/01/24 15:32:02;;;;;;;38.53;19.10;;;;;;;;;;4982191;28;20053;-68
2022/01/24 15:34:28;;;;;;;47.20;24.95;;;;;;;;;;4984182;28;20400;-67
2022/01/24 15:36:54;;;;;;;39.50;23.30;;;;;;;;;;4968483;28;20034;-67
2022/01/24 15:39:20;;;;;;;36.42;19.25;;;;;;;;;;4984057;28;20038;-67
2022/01/24 15:42:00;;;;;;;44.13;20.98;;;;;;;;;;4983823;28;20077;-67
2022/01/24 15:47:03;;;;;;;39.28;20.45;;;;;;;;;;4982989;28;20089;-66
2022/01/24 15:49:29;;;;;;;40.30;20.77;;;;;;;;;;4984225;28;20026;-65
2022/01/24 15:51:56;;;;;;;48.38;20.52;;;;;;;;;;4985313;28;20076;-66
2022/01/24 15:54:24;;;;;;;38.25;17.75;;;;;;;;;;4983487;28;20436;-66
2022/01/24 15:59:36;;;;;;;36.25;17.35;;;;;;;;;;4982290;28;20045;-66
2022/01/24 16:02:02;;;;;;;36.25;17.80;;;;;;;;;;4983405;28;20027;-66
2022/01/24 16:04:28;;;;;;;38.47;22.55;;;;;;;;;;4982884;28;20509;-66
2022/01/24 16:06:54;;;;;;;38.20;19.27;;;;;;;;;;4981928;28;20097;-66
2022/01/24 16:09:21;;;;;;;38.10;20.33;;;;;;;;;;4984929;28;20040;-65
2022/01/24 16:11:48;;;;;;;45.03;21.80;;;;;;;;;;4985343;28;20032;-65
2022/01/24 16:14:14;;;;;;;44.83;20.88;;;;;;;;;;4985456;28;20133;-67
2022/01/24 16:16:41;;;;;;;38.08;19.15;;;;;;;;;;4982200;28;20070;-66
2022/01/24 16:19:07;;;;;;;42.95;23.60;;;;;;;;;;4983240;28;20057;-65
2022/01/24 16:25:21;;;;;;;39.15;20.40;;;;;;;;;;4980886;28;20141;-65
2022/01/24 16:26:52;;;;;;;35.83;18.88;;;;;;;;;;4983134;28;20050;-65
2022/01/24 16:29:19;;;;;;;45.10;22.65;;;;;;;;;;4981676;28;20038;-67
2022/01/24 16:31:45;;;;;;;40.03;21.38;;;;;;;;;;4983213;28;20046;-66
2022/01/24 16:34:11;;;;;;;39.72;18.42;;;;;;;;;;4978725;28;20115;-65
2022/01/24 16:36:37;;;;;;;46.67;19.23;;;;;;;;;;4980780;28;20030;-66
2022/01/24 16:39:06;;;;;;;37.72;18.80;;;;;;;;;;4983390;28;20030;-66
2022/01/24 16:41:39;;;;;;;40.95;17.85;;;;;;;;;;4983462;28;20536;-67
2022/01/24 16:49:25;;;;;;;44.50;20.85;;;;;;;;;;4981761;28;20042;-66
2022/01/24 16:51:51;;;;;;;46.33;20.73;;;;;;;;;;4984677;28;20073;-66
2022/01/24 16:54:18;;;;;;;44.67;21.90;;;;;;;;;;4981983;28;20037;-66
2022/01/24 16:56:47;;;;;;;36.65;21.30;;;;;;;;;;4988006;28;20057;-66
2022/01/24 16:59:13;;;;;;;46.63;20.70;;;;;;;;;;4984699;28;20034;-65
2022/01/24 17:01:40;;;;;;;41.13;21.90;;;;;;;;;;4985718;28;20069;-66
2022/01/24 17:04:06;;;;;;;37.83;19.83;;;;;;;;;;4984024;28;20041;-65
2022/01/24 17:06:33;;;;;;;38.22;19.38;;;;;;;;;;4980433;28;20064;-65
2022/01/24 17:08:59;;;;;;;40.92;20.05;;;;;;;;;;4985421;28;20027;-66
2022/01/24 17:11:28;;;;;;;43.67;21.15;;;;;;;;;;4984797;28;20648;-66